PWSweather.com
Personal Weather Stations
Station Observations
LOBIOS
Galicia, LobiosES

GaliciaLobiosES

Lat: 41.895, Lon: -8.091667

Elevation: 1597

Station Type: Automática/Davis Vantage Pro2 Plus

Latest ConditionsUpdated 11:00:01 PM GMT+01:01 Saturday, Feb 23, 2019
Currently Today's Max Today's Min Today's Average
Temperature 51.4°F10.8°C 68.3°F20.2°C 44.7°F7.1°C 54.6°F12.6°C
Dew Point 43.1°F6.2°C 49.8°F9.9°C 37.4°F3.0°C 43.0°F6.1°C
Winds Calm Calm 11.5 mph -18.5 kmh - - 2.8 mph 4.5 kmh
Wind Gusts -- 16.1 mph25.9 kmh - -
Humidity 73% 83% 43% 66%
Pressure 30.45 in1031.2 mb 30.49 in1032.5 mb 30.40 in1029.5 mb -
Hour Temp Dew Point Humidity Winds Wind Gusts Pressure Precip Precip Rate Daily Precip Total
11:00 PM 51.4°F10.8°C 43.1°F6.2°C 73% Calm Calm -- 30.45 in1031.2 mb - 0.00 in0.0 mm 0.00 in0.0 mm
10:50 PM 52.0°F11.1°C 43.2°F6.2°C 72% 3.5 mph NE5.6 kmh NE 3.5 mph5.6 kmh 30.45 in1031.2 mb - 0.00 in0.0 mm 0.00 in0.0 mm
10:40 PM 52.6°F11.4°C 43.8°F6.6°C 72% 3.5 mph NE5.6 kmh NE 3.5 mph5.6 kmh 30.45 in1031.2 mb - 0.00 in0.0 mm 0.00 in0.0 mm
10:30 PM 53.1°F11.7°C 43.9°F6.6°C 71% 3.5 mph NE5.6 kmh NE 3.5 mph5.6 kmh 30.45 in1031.2 mb - 0.00 in0.0 mm 0.00 in0.0 mm
10:20 PM 53.4°F11.9°C 43.9°F6.6°C 70% Calm Calm -- 30.45 in1031.2 mb - 0.00 in0.0 mm 0.00 in0.0 mm
10:10 PM 53.7°F12.1°C 43.8°F6.6°C 69% 1.1 mph NE1.8 kmh NE 2.3 mph3.7 kmh 30.45 in1031.2 mb - 0.00 in0.0 mm 0.00 in0.0 mm
10:00 PM 54.2°F12.3°C 43.9°F6.6°C 68% Calm Calm -- 30.45 in1031.2 mb - 0.00 in0.0 mm 0.00 in0.0 mm
09:50 PM 54.5°F12.5°C 43.8°F6.6°C 67% Calm Calm -- 30.45 in1031.2 mb - 0.00 in0.0 mm 0.00 in0.0 mm
09:40 PM 54.8°F12.7°C 43.3°F6.3°C 65% Calm Calm -- 30.45 in1031.2 mb - 0.00 in0.0 mm 0.00 in0.0 mm
09:30 PM 55.3°F12.9°C 43.7°F6.5°C 65% Calm Calm -- 30.45 in1031.2 mb - 0.00 in0.0 mm 0.00 in0.0 mm
09:20 PM 55.6°F13.1°C 43.2°F6.2°C 63% 1.1 mph NE1.8 kmh NE 1.1 mph1.8 kmh 30.45 in1031.2 mb - 0.00 in0.0 mm 0.00 in0.0 mm
09:10 PM 56.2°F13.4°C 43.3°F6.3°C 62% Calm Calm -- 30.44 in1030.8 mb - 0.00 in0.0 mm 0.00 in0.0 mm
09:00 PM 56.7°F13.7°C 43.4°F6.3°C 61% Calm Calm -- 30.44 in1030.8 mb - 0.00 in0.0 mm 0.00 in0.0 mm
08:50 PM 57.2°F14.0°C 43.8°F6.6°C 61% 1.1 mph NE1.8 kmh NE 2.3 mph3.7 kmh 30.44 in1030.8 mb - 0.00 in0.0 mm 0.00 in0.0 mm
08:40 PM 57.5°F14.2°C 44.6°F7.0°C 62% 2.3 mph NE3.7 kmh NE 3.5 mph5.6 kmh 30.44 in1030.8 mb - 0.00 in0.0 mm 0.00 in0.0 mm
08:30 PM 57.9°F14.4°C 44.5°F6.9°C 61% Calm Calm 2.3 mph3.7 kmh 30.44 in1030.8 mb - 0.00 in0.0 mm 0.00 in0.0 mm
08:20 PM 58.4°F14.7°C 44.6°F7.0°C 60% Calm Calm -- 30.44 in1030.8 mb - 0.00 in0.0 mm 0.00 in0.0 mm
08:10 PM 58.7°F14.8°C 44.4°F6.9°C 59% Calm Calm -- 30.44 in1030.8 mb - 0.00 in0.0 mm 0.00 in0.0 mm
08:00 PM 59.3°F15.2°C 44.5°F6.9°C 58% 2.3 mph WSW3.7 kmh WSW 2.3 mph3.7 kmh 30.44 in1030.8 mb - 0.00 in0.0 mm 0.00 in0.0 mm
07:50 PM 59.9°F15.5°C 44.6°F7.0°C 57% 3.5 mph WSW5.6 kmh WSW 4.6 mph7.4 kmh 30.44 in1030.8 mb - 0.00 in0.0 mm 0.00 in0.0 mm
07:40 PM 60.3°F15.7°C 44.5°F6.9°C 56% 3.5 mph WSW5.6 kmh WSW 3.5 mph5.6 kmh 30.44 in1030.8 mb - 0.00 in0.0 mm 0.00 in0.0 mm
07:30 PM 60.7°F15.9°C 44.5°F6.9°C 55% 3.5 mph WSW5.6 kmh WSW 4.6 mph7.4 kmh 30.44 in1030.8 mb - 0.00 in0.0 mm 0.00 in0.0 mm
07:20 PM 61.3°F16.3°C 43.5°F6.4°C 52% 4.6 mph WSW7.4 kmh WSW 4.6 mph7.4 kmh 30.44 in1030.8 mb - 0.00 in0.0 mm 0.00 in0.0 mm
07:10 PM 62.2°F16.8°C 44.9°F7.2°C 53% 4.6 mph SW7.4 kmh SW 6.9 mph11.1 kmh 30.44 in1030.8 mb - 0.00 in0.0 mm 0.00 in0.0 mm
07:00 PM 63.0°F17.2°C 44.5°F6.9°C 51% 5.8 mph WSW9.3 kmh WSW 6.9 mph11.1 kmh 30.43 in1030.5 mb - 0.00 in0.0 mm 0.00 in0.0 mm
06:50 PM 63.5°F17.5°C 44.0°F6.7°C 49% 6.9 mph WSW11.1 kmh WSW 8.1 mph13.0 kmh 30.43 in1030.5 mb - 0.00 in0.0 mm 0.00 in0.0 mm
06:40 PM 64.1°F17.8°C 44.0°F6.7°C 48% 5.8 mph SW9.3 kmh SW 5.8 mph9.3 kmh 30.43 in1030.5 mb - 0.00 in0.0 mm 0.00 in0.0 mm
06:30 PM 64.7°F18.2°C 44.0°F6.7°C 47% 5.8 mph SW9.3 kmh SW 6.9 mph11.1 kmh 30.43 in1030.5 mb - 0.00 in0.0 mm 0.00 in0.0 mm
06:20 PM 65.1°F18.4°C 43.8°F6.6°C 46% 5.8 mph WSW9.3 kmh WSW 8.1 mph13.0 kmh 30.43 in1030.5 mb - 0.00 in0.0 mm 0.00 in0.0 mm
06:10 PM 65.6°F18.7°C 43.1°F6.2°C 44% 10.4 mph WSW16.7 kmh WSW 12.7 mph20.4 kmh 30.43 in1030.5 mb - 0.00 in0.0 mm 0.00 in0.0 mm
06:00 PM 66.1°F18.9°C 43.5°F6.4°C 44% 8.1 mph SW13.0 kmh SW 11.5 mph18.5 kmh 30.43 in1030.5 mb - 0.00 in0.0 mm 0.00 in0.0 mm
05:50 PM 66.6°F19.2°C 43.4°F6.3°C 43% 9.2 mph SW14.8 kmh SW 11.5 mph18.5 kmh 30.43 in1030.5 mb - 0.00 in0.0 mm 0.00 in0.0 mm
05:40 PM 67.0°F19.4°C 45.0°F7.2°C 45% 10.4 mph SW16.7 kmh SW 13.8 mph22.2 kmh 30.43 in1030.5 mb - 0.00 in0.0 mm 0.00 in0.0 mm
05:30 PM 67.0°F19.4°C 45.5°F7.5°C 46% 11.5 mph SW18.5 kmh SW 16.1 mph25.9 kmh 30.42 in1030.1 mb - 0.00 in0.0 mm 0.00 in0.0 mm
05:20 PM 67.2°F19.6°C 46.8°F8.2°C 48% 9.2 mph SW14.8 kmh SW 11.5 mph18.5 kmh 30.42 in1030.1 mb - 0.00 in0.0 mm 0.00 in0.0 mm
05:10 PM 66.8°F19.3°C 46.5°F8.1°C 48% 5.8 mph WSW9.3 kmh WSW 10.4 mph16.7 kmh 30.42 in1030.1 mb - 0.00 in0.0 mm 0.00 in0.0 mm
05:00 PM 66.6°F19.2°C 46.3°F7.9°C 48% 4.6 mph W7.4 kmh W 6.9 mph11.1 kmh 30.41 in1029.8 mb - 0.00 in0.0 mm 0.00 in0.0 mm
04:50 PM 66.8°F19.3°C 45.9°F7.7°C 47% 3.5 mph WSW5.6 kmh WSW 8.1 mph13.0 kmh 30.41 in1029.8 mb - 0.00 in0.0 mm 0.00 in0.0 mm
04:40 PM 66.6°F19.2°C 46.9°F8.3°C 49% 3.5 mph WSW5.6 kmh WSW 6.9 mph11.1 kmh 30.41 in1029.8 mb - 0.00 in0.0 mm 0.00 in0.0 mm
04:30 PM 66.6°F19.2°C 46.8°F8.2°C 49% 4.6 mph NW7.4 kmh NW 5.8 mph9.3 kmh 30.41 in1029.8 mb - 0.00 in0.0 mm 0.00 in0.0 mm
04:20 PM 67.2°F19.6°C 47.3°F8.5°C 49% 3.5 mph NW5.6 kmh NW 8.1 mph13.0 kmh 30.42 in1030.1 mb - 0.00 in0.0 mm 0.00 in0.0 mm
04:10 PM 67.6°F19.8°C 47.2°F8.4°C 48% 5.8 mph WSW9.3 kmh WSW 8.1 mph13.0 kmh 30.42 in1030.1 mb - 0.00 in0.0 mm 0.00 in0.0 mm
04:00 PM 67.9°F19.9°C 45.8°F7.7°C 45% 5.8 mph W9.3 kmh W 6.9 mph11.1 kmh 30.42 in1030.1 mb - 0.00 in0.0 mm 0.00 in0.0 mm
03:50 PM 67.9°F19.9°C 48.0°F8.9°C 49% 6.9 mph WSW11.1 kmh WSW 11.5 mph18.5 kmh 30.42 in1030.1 mb - 0.00 in0.0 mm 0.00 in0.0 mm
03:40 PM 67.8°F19.9°C 46.8°F8.2°C 47% 8.1 mph WSW13.0 kmh WSW 11.5 mph18.5 kmh 30.43 in1030.5 mb - 0.00 in0.0 mm 0.00 in0.0 mm
03:30 PM 68.3°F20.2°C 47.8°F8.8°C 48% 11.5 mph SW18.5 kmh SW 13.8 mph22.2 kmh 30.43 in1030.5 mb - 0.00 in0.0 mm 0.00 in0.0 mm
03:20 PM 67.7°F19.8°C 49.4°F9.7°C 52% 10.4 mph SW16.7 kmh SW 11.5 mph18.5 kmh 30.43 in1030.5 mb - 0.00 in0.0 mm 0.00 in0.0 mm
03:10 PM 66.7°F19.3°C 49.5°F9.7°C 54% 8.1 mph SW13.0 kmh SW 10.4 mph16.7 kmh 30.43 in1030.5 mb - 0.00 in0.0 mm 0.00 in0.0 mm
03:00 PM 65.9°F18.8°C 47.8°F8.8°C 52% 5.8 mph WSW9.3 kmh WSW 8.1 mph13.0 kmh 30.44 in1030.8 mb - 0.00 in0.0 mm 0.00 in0.0 mm
02:50 PM 65.6°F18.7°C 48.5°F9.2°C 54% 3.5 mph NW5.6 kmh NW 4.6 mph7.4 kmh 30.44 in1030.8 mb - 0.00 in0.0 mm 0.00 in0.0 mm
02:40 PM 64.6°F18.1°C 48.6°F9.2°C 56% 4.6 mph WSW7.4 kmh WSW 5.8 mph9.3 kmh 30.44 in1030.8 mb - 0.00 in0.0 mm 0.00 in0.0 mm
02:30 PM 64.3°F17.9°C 48.3°F9.1°C 56% 3.5 mph NE5.6 kmh NE 3.5 mph5.6 kmh 30.44 in1030.8 mb - 0.00 in0.0 mm 0.00 in0.0 mm
02:20 PM 64.5°F18.1°C 49.8°F9.9°C 59% 3.5 mph SW5.6 kmh SW 5.8 mph9.3 kmh 30.45 in1031.2 mb - 0.00 in0.0 mm 0.00 in0.0 mm
02:10 PM 64.5°F18.1°C 49.4°F9.7°C 58% 4.6 mph SW7.4 kmh SW 6.9 mph11.1 kmh 30.45 in1031.2 mb - 0.00 in0.0 mm 0.00 in0.0 mm
02:00 PM 63.8°F17.7°C 49.2°F9.6°C 59% 4.6 mph SW7.4 kmh SW 6.9 mph11.1 kmh 30.46 in1031.5 mb - 0.00 in0.0 mm 0.00 in0.0 mm
01:50 PM 63.0°F17.2°C 49.3°F9.6°C 61% 3.5 mph SW5.6 kmh SW 4.6 mph7.4 kmh 30.46 in1031.5 mb - 0.00 in0.0 mm 0.00 in0.0 mm
01:40 PM 62.5°F16.9°C 48.9°F9.4°C 61% Calm Calm 1.1 mph1.8 kmh 30.46 in1031.5 mb - 0.00 in0.0 mm 0.00 in0.0 mm
01:30 PM 61.6°F16.4°C 48.9°F9.4°C 63% Calm Calm 2.3 mph3.7 kmh 30.46 in1031.5 mb - 0.00 in0.0 mm 0.00 in0.0 mm
01:20 PM 60.7°F15.9°C 48.4°F9.1°C 64% 2.3 mph NE3.7 kmh NE 2.3 mph3.7 kmh 30.46 in1031.5 mb - 0.00 in0.0 mm 0.00 in0.0 mm
01:10 PM 60.0°F15.6°C 47.4°F8.6°C 63% Calm Calm 1.1 mph1.8 kmh 30.46 in1031.5 mb - 0.00 in0.0 mm 0.00 in0.0 mm
01:00 PM 59.1°F15.1°C 47.4°F8.6°C 65% 1.1 mph NE1.8 kmh NE 3.5 mph5.6 kmh 30.46 in1031.5 mb - 0.00 in0.0 mm 0.00 in0.0 mm
12:50 PM 59.1°F15.1°C 47.3°F8.5°C 65% 1.1 mph NE1.8 kmh NE 1.1 mph1.8 kmh 30.47 in1031.8 mb - 0.00 in0.0 mm 0.00 in0.0 mm
12:40 PM 59.2°F15.1°C 47.8°F8.8°C 66% 1.1 mph E1.8 kmh E 3.5 mph5.6 kmh 30.47 in1031.8 mb - 0.00 in0.0 mm 0.00 in0.0 mm
12:30 PM 58.9°F14.9°C 48.0°F8.9°C 67% Calm Calm 1.1 mph1.8 kmh 30.48 in1032.2 mb - 0.00 in0.0 mm 0.00 in0.0 mm
12:20 PM 58.1°F14.5°C 48.0°F8.9°C 69% 4.6 mph SW7.4 kmh SW 4.6 mph7.4 kmh 30.48 in1032.2 mb - 0.00 in0.0 mm 0.00 in0.0 mm
12:10 PM 56.6°F13.7°C 46.5°F8.1°C 69% Calm Calm -- 30.47 in1031.8 mb - 0.00 in0.0 mm 0.00 in0.0 mm
12:00 PM 55.7°F13.2°C 46.1°F7.8°C 70% Calm Calm -- 30.48 in1032.2 mb - 0.00 in0.0 mm 0.00 in0.0 mm
11:50 AM 54.5°F12.5°C 44.5°F6.9°C 69% Calm Calm 1.1 mph1.8 kmh 30.48 in1032.2 mb - 0.00 in0.0 mm 0.00 in0.0 mm
11:40 AM 54.1°F12.3°C 44.5°F6.9°C 70% 3.5 mph NE5.6 kmh NE 4.6 mph7.4 kmh 30.48 in1032.2 mb - 0.00 in0.0 mm 0.00 in0.0 mm
11:30 AM 53.7°F12.1°C 44.9°F7.2°C 72% 1.1 mph NE1.8 kmh NE 3.5 mph5.6 kmh 30.48 in1032.2 mb - 0.00 in0.0 mm 0.00 in0.0 mm
11:20 AM 52.3°F11.3°C 43.9°F6.6°C 73% Calm Calm -- 30.48 in1032.2 mb - 0.00 in0.0 mm 0.00 in0.0 mm
11:10 AM 50.8°F10.4°C 43.5°F6.4°C 76% Calm Calm 1.1 mph1.8 kmh 30.48 in1032.2 mb - 0.00 in0.0 mm 0.00 in0.0 mm
11:00 AM 49.7°F9.8°C 42.8°F6.0°C 77% Calm Calm 1.1 mph1.8 kmh 30.48 in1032.2 mb - 0.00 in0.0 mm 0.00 in0.0 mm
10:50 AM 49.1°F9.5°C 42.5°F5.8°C 78% 5.8 mph NE9.3 kmh NE 6.9 mph11.1 kmh 30.48 in1032.2 mb - 0.00 in0.0 mm 0.00 in0.0 mm
10:40 AM 48.4°F9.1°C 42.2°F5.7°C 79% 4.6 mph NE7.4 kmh NE 4.6 mph7.4 kmh 30.48 in1032.2 mb - 0.00 in0.0 mm 0.00 in0.0 mm
10:30 AM 47.9°F8.8°C 41.7°F5.4°C 79% 5.8 mph NE9.3 kmh NE 5.8 mph9.3 kmh 30.48 in1032.2 mb - 0.00 in0.0 mm 0.00 in0.0 mm
10:20 AM 46.9°F8.3°C 41.4°F5.2°C 81% 4.6 mph NE7.4 kmh NE 4.6 mph7.4 kmh 30.49 in1032.5 mb - 0.00 in0.0 mm 0.00 in0.0 mm
10:10 AM 45.8°F7.7°C 40.6°F4.8°C 82% 1.1 mph NE1.8 kmh NE 2.3 mph3.7 kmh 30.49 in1032.5 mb - 0.00 in0.0 mm 0.00 in0.0 mm
10:00 AM 45.6°F7.6°C 40.4°F4.7°C 82% 3.5 mph NE5.6 kmh NE 5.8 mph9.3 kmh 30.48 in1032.2 mb - 0.00 in0.0 mm 0.00 in0.0 mm
09:50 AM 45.6°F7.6°C 40.7°F4.8°C 83% 4.6 mph NE7.4 kmh NE 4.6 mph7.4 kmh 30.48 in1032.2 mb - 0.00 in0.0 mm 0.00 in0.0 mm
09:40 AM 45.6°F7.6°C 40.8°F4.9°C 83% 4.6 mph NE7.4 kmh NE 4.6 mph7.4 kmh 30.48 in1032.2 mb - 0.00 in0.0 mm 0.00 in0.0 mm
09:30 AM 45.6°F7.6°C 40.7°F4.8°C 83% 1.1 mph NE1.8 kmh NE 2.3 mph3.7 kmh 30.48 in1032.2 mb - 0.00 in0.0 mm 0.00 in0.0 mm
09:20 AM 45.3°F7.4°C 40.4°F4.7°C 83% 1.1 mph NE1.8 kmh NE 1.1 mph1.8 kmh 30.48 in1032.2 mb - 0.00 in0.0 mm 0.00 in0.0 mm
09:10 AM 45.0°F7.2°C 40.1°F4.5°C 83% 3.5 mph NE5.6 kmh NE 3.5 mph5.6 kmh 30.48 in1032.2 mb - 0.00 in0.0 mm 0.00 in0.0 mm
09:00 AM 44.9°F7.2°C 40.1°F4.5°C 83% 4.6 mph ENE7.4 kmh ENE 4.6 mph7.4 kmh 30.48 in1032.2 mb - 0.00 in0.0 mm 0.00 in0.0 mm
08:50 AM 44.9°F7.2°C 39.7°F4.3°C 82% 3.5 mph ENE5.6 kmh ENE 4.6 mph7.4 kmh 30.47 in1031.8 mb - 0.00 in0.0 mm 0.00 in0.0 mm
08:40 AM 44.9°F7.2°C 39.7°F4.3°C 82% Calm Calm -- 30.47 in1031.8 mb - 0.00 in0.0 mm 0.00 in0.0 mm
08:30 AM 44.8°F7.1°C 39.7°F4.3°C 82% 3.5 mph SW5.6 kmh SW 4.6 mph7.4 kmh 30.47 in1031.8 mb - 0.00 in0.0 mm 0.00 in0.0 mm
08:20 AM 44.8°F7.1°C 39.6°F4.2°C 82% Calm Calm -- 30.47 in1031.8 mb - 0.00 in0.0 mm 0.00 in0.0 mm
08:10 AM 44.7°F7.1°C 39.5°F4.2°C 82% 2.3 mph SW3.7 kmh SW 3.5 mph5.6 kmh 30.46 in1031.5 mb - 0.00 in0.0 mm 0.00 in0.0 mm
08:00 AM 44.8°F7.1°C 39.6°F4.2°C 82% 1.1 mph SW1.8 kmh SW 2.3 mph3.7 kmh 30.46 in1031.5 mb - 0.00 in0.0 mm 0.00 in0.0 mm
07:50 AM 44.9°F7.2°C 39.7°F4.3°C 82% Calm Calm -- 30.46 in1031.5 mb - 0.00 in0.0 mm 0.00 in0.0 mm
07:40 AM 45.0°F7.2°C 39.8°F4.3°C 82% Calm Calm -- 30.45 in1031.2 mb - 0.00 in0.0 mm 0.00 in0.0 mm
07:30 AM 45.1°F7.3°C 39.9°F4.4°C 82% Calm Calm 2.3 mph3.7 kmh 30.45 in1031.2 mb - 0.00 in0.0 mm 0.00 in0.0 mm
07:20 AM 45.1°F7.3°C 39.9°F4.4°C 82% 2.3 mph SW3.7 kmh SW 3.5 mph5.6 kmh 30.45 in1031.2 mb - 0.00 in0.0 mm 0.00 in0.0 mm
07:10 AM 45.1°F7.3°C 39.9°F4.4°C 82% Calm Calm -- 30.45 in1031.2 mb - 0.00 in0.0 mm 0.00 in0.0 mm
07:00 AM 45.1°F7.3°C 39.7°F4.3°C 81% Calm Calm -- 30.45 in1031.2 mb - 0.00 in0.0 mm 0.00 in0.0 mm
06:50 AM 45.3°F7.4°C 39.8°F4.3°C 81% Calm Calm -- 30.44 in1030.8 mb - 0.00 in0.0 mm 0.00 in0.0 mm
06:40 AM 45.4°F7.4°C 39.6°F4.2°C 80% Calm Calm -- 30.44 in1030.8 mb - 0.00 in0.0 mm 0.00 in0.0 mm
06:30 AM 45.8°F7.7°C 39.9°F4.4°C 80% Calm Calm -- 30.43 in1030.5 mb - 0.00 in0.0 mm 0.00 in0.0 mm
06:20 AM 46.0°F7.8°C 39.8°F4.3°C 79% Calm Calm 5.8 mph9.3 kmh 30.43 in1030.5 mb - 0.00 in0.0 mm 0.00 in0.0 mm
06:10 AM 46.1°F7.8°C 39.9°F4.4°C 79% Calm Calm 3.5 mph5.6 kmh 30.43 in1030.5 mb - 0.00 in0.0 mm 0.00 in0.0 mm
06:00 AM 46.1°F7.8°C 39.9°F4.4°C 79% Calm Calm 2.3 mph3.7 kmh 30.43 in1030.5 mb - 0.00 in0.0 mm 0.00 in0.0 mm
05:50 AM 46.1°F7.8°C 39.6°F4.2°C 78% 1.1 mph NE1.8 kmh NE 2.3 mph3.7 kmh 30.43 in1030.5 mb - 0.00 in0.0 mm 0.00 in0.0 mm
05:40 AM 46.3°F7.9°C 39.8°F4.3°C 78% 3.5 mph NE5.6 kmh NE 4.6 mph7.4 kmh 30.43 in1030.5 mb - 0.00 in0.0 mm 0.00 in0.0 mm
05:30 AM 46.4°F8.0°C 39.6°F4.2°C 77% 3.5 mph NE5.6 kmh NE 3.5 mph5.6 kmh 30.42 in1030.1 mb - 0.00 in0.0 mm 0.00 in0.0 mm
05:20 AM 46.9°F8.3°C 39.7°F4.3°C 76% 4.6 mph NE7.4 kmh NE 4.6 mph7.4 kmh 30.42 in1030.1 mb - 0.00 in0.0 mm 0.00 in0.0 mm
05:10 AM 47.2°F8.4°C 39.7°F4.3°C 75% 2.3 mph SSW3.7 kmh SSW 3.5 mph5.6 kmh 30.43 in1030.5 mb - 0.00 in0.0 mm 0.00 in0.0 mm
05:00 AM 47.5°F8.6°C 40.0°F4.4°C 75% 2.3 mph SSW3.7 kmh SSW 3.5 mph5.6 kmh 30.43 in1030.5 mb - 0.00 in0.0 mm 0.00 in0.0 mm
04:50 AM 47.8°F8.8°C 40.3°F4.6°C 75% 1.1 mph SSW1.8 kmh SSW 2.3 mph3.7 kmh 30.42 in1030.1 mb - 0.00 in0.0 mm 0.00 in0.0 mm
04:40 AM 48.2°F9.0°C 40.7°F4.8°C 75% Calm Calm 2.3 mph3.7 kmh 30.43 in1030.5 mb - 0.00 in0.0 mm 0.00 in0.0 mm
04:30 AM 48.6°F9.2°C 40.7°F4.8°C 74% Calm Calm -- 30.42 in1030.1 mb - 0.00 in0.0 mm 0.00 in0.0 mm
04:20 AM 48.7°F9.3°C 40.8°F4.9°C 74% Calm Calm -- 30.42 in1030.1 mb - 0.00 in0.0 mm 0.00 in0.0 mm
04:10 AM 49.1°F9.5°C 40.4°F4.7°C 72% Calm Calm 2.3 mph3.7 kmh 30.42 in1030.1 mb - 0.00 in0.0 mm 0.00 in0.0 mm
04:00 AM 49.4°F9.7°C 40.7°F4.8°C 72% Calm Calm -- 30.42 in1030.1 mb - 0.00 in0.0 mm 0.00 in0.0 mm
03:50 AM 49.5°F9.7°C 40.8°F4.9°C 72% 1.1 mph SSW1.8 kmh SSW 1.1 mph1.8 kmh 30.42 in1030.1 mb - 0.00 in0.0 mm 0.00 in0.0 mm
03:40 AM 49.2°F9.6°C 40.2°F4.6°C 71% Calm Calm -- 30.42 in1030.1 mb - 0.00 in0.0 mm 0.00 in0.0 mm
03:30 AM 49.2°F9.6°C 39.8°F4.3°C 70% Calm Calm -- 30.42 in1030.1 mb - 0.00 in0.0 mm 0.00 in0.0 mm
03:20 AM 49.1°F9.5°C 39.7°F4.3°C 70% Calm Calm -- 30.42 in1030.1 mb - 0.00 in0.0 mm 0.00 in0.0 mm
03:10 AM 49.2°F9.6°C 39.5°F4.2°C 69% 1.1 mph SSW1.8 kmh SSW 2.3 mph3.7 kmh 30.41 in1029.8 mb - 0.00 in0.0 mm 0.00 in0.0 mm
03:00 AM 49.4°F9.7°C 39.6°F4.2°C 69% Calm Calm 2.3 mph3.7 kmh 30.41 in1029.8 mb - 0.00 in0.0 mm 0.00 in0.0 mm
02:50 AM 49.4°F9.7°C 39.7°F4.3°C 69% Calm Calm -- 30.41 in1029.8 mb - 0.00 in0.0 mm 0.00 in0.0 mm
02:40 AM 49.8°F9.9°C 40.1°F4.5°C 69% Calm Calm -- 30.41 in1029.8 mb - 0.00 in0.0 mm 0.00 in0.0 mm
02:30 AM 50.3°F10.2°C 40.5°F4.7°C 69% Calm Calm 2.3 mph3.7 kmh 30.41 in1029.8 mb - 0.00 in0.0 mm 0.00 in0.0 mm
02:20 AM 50.7°F10.4°C 40.9°F4.9°C 69% Calm Calm -- 30.41 in1029.8 mb - 0.00 in0.0 mm 0.00 in0.0 mm
02:10 AM 51.0°F10.6°C 41.1°F5.1°C 69% Calm Calm 2.3 mph3.7 kmh 30.41 in1029.8 mb - 0.00 in0.0 mm 0.00 in0.0 mm
02:00 AM 51.2°F10.7°C 41.4°F5.2°C 69% Calm Calm -- 30.41 in1029.8 mb - 0.00 in0.0 mm 0.00 in0.0 mm
01:50 AM 51.4°F10.8°C 41.2°F5.1°C 68% 2.3 mph SSW3.7 kmh SSW 3.5 mph5.6 kmh 30.41 in1029.8 mb - 0.00 in0.0 mm 0.00 in0.0 mm
01:40 AM 51.5°F10.8°C 41.3°F5.2°C 68% 1.1 mph SW1.8 kmh SW 2.3 mph3.7 kmh 30.41 in1029.8 mb - 0.00 in0.0 mm 0.00 in0.0 mm
01:30 AM 51.7°F10.9°C 41.5°F5.3°C 68% 5.8 mph SSW9.3 kmh SSW 5.8 mph9.3 kmh 30.41 in1029.8 mb - 0.00 in0.0 mm 0.00 in0.0 mm
01:20 AM 51.6°F10.9°C 41.0°F5.0°C 67% 8.1 mph WSW13.0 kmh WSW 10.4 mph16.7 kmh 30.41 in1029.8 mb - 0.00 in0.0 mm 0.00 in0.0 mm
01:10 AM 51.6°F10.9°C 40.6°F4.8°C 66% 4.6 mph SSW7.4 kmh SSW 6.9 mph11.1 kmh 30.41 in1029.8 mb - 0.00 in0.0 mm 0.00 in0.0 mm
01:00 AM 51.6°F10.9°C 39.8°F4.3°C 64% 8.1 mph SW13.0 kmh SW 11.5 mph18.5 kmh 30.41 in1029.8 mb - 0.00 in0.0 mm 0.00 in0.0 mm
12:50 AM 51.9°F11.1°C 38.5°F3.6°C 60% 6.9 mph W11.1 kmh W 9.2 mph14.8 kmh 30.41 in1029.8 mb - 0.00 in0.0 mm 0.00 in0.0 mm
12:40 AM 52.4°F11.3°C 37.6°F3.1°C 57% 4.6 mph SW7.4 kmh SW 4.6 mph7.4 kmh 30.40 in1029.5 mb - 0.00 in0.0 mm 0.00 in0.0 mm
12:30 AM 52.4°F11.3°C 38.1°F3.4°C 58% 1.1 mph SW1.8 kmh SW 1.1 mph1.8 kmh 30.41 in1029.8 mb - 0.00 in0.0 mm 0.00 in0.0 mm
12:20 AM 52.2°F11.2°C 37.4°F3.0°C 57% 1.1 mph NE1.8 kmh NE 3.5 mph5.6 kmh 30.41 in1029.8 mb - 0.00 in0.0 mm 0.00 in0.0 mm
12:10 AM 51.8°F11.0°C 37.5°F3.1°C 58% 3.5 mph NNE5.6 kmh NNE 4.6 mph7.4 kmh 30.40 in1029.5 mb - 0.00 in0.0 mm 0.00 in0.0 mm
12:00 AM 51.9°F11.1°C 38.0°F3.3°C 59% 2.3 mph NNE3.7 kmh NNE 2.3 mph3.7 kmh 30.41 in1029.8 mb - 0.00 in0.0 mm 0.00 in0.0 mm